Time;durP1;ratioP1;P1;durP2;ratioP2;P2;SDS_P1;SDS_P2;PMS_P1;PMS_P2;Temp;Humidity;BMP_temperature;BMP_pressure;BME280_temperature;BME280_humidity;BME280_pressure;Samples;Min_cycle;Max_cycle;Signal;HPM_P1;HPM_P2
2022/03/29 00:01:56;;;;;;;19.00;11.30;;;8.90;99.90;;;;;;4700233;28;10000574;-75
2022/03/29 00:04:22;;;;;;;20.00;11.82;;;8.80;99.90;;;;;;5062273;28;20020;-75
2022/03/29 00:06:49;;;;;;;20.52;11.57;;;8.70;99.90;;;;;;5055571;28;20392;-75
2022/03/29 00:09:16;;;;;;;18.95;11.60;;;8.70;99.90;;;;;;5039341;28;20401;-75
2022/03/29 00:11:42;;;;;;;22.98;11.90;;;8.70;99.90;;;;;;5054340;28;20022;-75
2022/03/29 00:14:08;;;;;;;25.45;11.98;;;8.60;99.90;;;;;;5050221;28;20028;-75
2022/03/29 00:16:34;;;;;;;22.90;12.98;;;8.60;99.90;;;;;;5054808;28;20025;-75
2022/03/29 00:19:00;;;;;;;21.13;12.60;;;8.60;99.90;;;;;;5040582;28;20341;-75
2022/03/29 00:21:25;;;;;;;24.92;12.73;;;8.70;99.90;;;;;;5043765;28;20033;-75
2022/03/29 00:23:52;;;;;;;24.63;12.85;;;8.80;99.90;;;;;;5045357;28;20032;-75
2022/03/29 00:26:18;;;;;;;23.73;12.35;;;8.90;99.90;;;;;;5044053;28;20122;-75
2022/03/29 00:28:43;;;;;;;20.45;12.52;;;8.90;99.90;;;;;;5040680;28;20111;-75
2022/03/29 00:31:10;;;;;;;22.75;13.07;;;8.90;99.90;;;;;;5032997;28;20037;-75
2022/03/29 00:33:36;;;;;;;23.45;13.50;;;8.80;99.90;;;;;;5042354;28;20036;-75
2022/03/29 00:36:01;;;;;;;22.02;13.40;;;8.70;99.90;;;;;;5052279;28;20421;-75
2022/03/29 00:38:27;;;;;;;19.67;12.25;;;8.70;99.90;;;;;;5046205;28;20315;-75
2022/03/29 00:40:53;;;;;;;18.20;11.93;;;8.50;99.90;;;;;;5045977;28;20306;-75
2022/03/29 00:43:19;;;;;;;19.25;11.75;;;8.40;99.90;;;;;;5039739;28;20136;-75
2022/03/29 00:45:45;;;;;;;20.08;12.40;;;8.30;99.90;;;;;;5040058;28;20512;-75
2022/03/29 00:48:13;;;;;;;19.10;11.93;;;8.30;99.90;;;;;;5042425;28;20361;-75
2022/03/29 00:50:40;;;;;;;18.25;12.13;;;8.20;99.90;;;;;;5037901;28;20025;-75
2022/03/29 00:53:07;;;;;;;20.10;11.85;;;8.10;99.90;;;;;;5038986;28;20108;-75
2022/03/29 00:55:33;;;;;;;19.23;12.23;;;8.10;99.90;;;;;;5039694;28;20029;-75
2022/03/29 00:58:03;;;;;;;21.60;12.75;;;8.10;99.90;;;;;;5043194;28;20393;-75
2022/03/29 01:00:31;;;;;;;22.50;13.35;;;8.10;99.90;;;;;;5031196;28;20643;-75
2022/03/29 01:02:58;;;;;;;27.77;15.60;;;8.00;99.90;;;;;;5043801;28;20051;-75
2022/03/29 01:05:26;;;;;;;22.65;14.43;;;8.00;99.90;;;;;;5041026;28;20530;-75
2022/03/29 01:07:54;;;;;;;26.55;15.40;;;8.00;99.90;;;;;;5040781;28;20484;-75
2022/03/29 01:10:20;;;;;;;28.27;17.42;;;8.00;99.90;;;;;;5040765;28;20257;-75
2022/03/29 01:12:46;;;;;;;26.90;16.83;;;8.00;99.90;;;;;;5045418;28;20037;-75
2022/03/29 01:15:13;;;;;;;26.77;16.98;;;8.00;99.90;;;;;;5032466;28;22695;-75
2022/03/29 01:17:41;;;;;;;29.13;17.55;;;8.00;99.90;;;;;;5040585;28;20108;-75
2022/03/29 01:20:27;;;;;;;28.92;18.30;;;7.90;99.90;;;;;;5045070;28;20349;-75
2022/03/29 01:22:55;;;;;;;29.35;17.92;;;7.90;99.90;;;;;;5040445;28;20033;-75
2022/03/29 01:25:24;;;;;;;29.65;18.75;;;7.90;99.90;;;;;;5046807;28;20496;-75
2022/03/29 01:27:51;;;;;;;27.88;17.73;;;7.90;99.90;;;;;;5040182;28;20112;-75
2022/03/29 01:30:18;;;;;;;33.47;20.13;;;7.80;99.90;;;;;;5041525;28;20045;-75
2022/03/29 01:32:45;;;;;;;29.20;19.52;;;7.80;99.90;;;;;;5034730;28;20033;-75
2022/03/29 01:35:12;;;;;;;33.50;20.25;;;7.90;99.90;;;;;;5044539;28;20025;-75
2022/03/29 01:37:38;;;;;;;35.53;21.25;;;8.00;99.90;;;;;;5041570;28;20017;-75
2022/03/29 01:40:09;;;;;;;33.30;20.17;;;8.10;99.90;;;;;;5042894;28;20516;-75
2022/03/29 01:42:35;;;;;;;40.20;21.83;;;8.20;99.90;;;;;;5043452;28;20393;-75
2022/03/29 01:45:01;;;;;;;37.78;21.13;;;8.30;99.90;;;;;;5035365;28;20033;-74
2022/03/29 01:47:26;;;;;;;39.30;21.67;;;8.30;99.90;;;;;;5038125;28;20103;-74
2022/03/29 01:49:52;;;;;;;37.53;21.23;;;8.40;99.90;;;;;;5041043;28;20112;-74
2022/03/29 01:52:19;;;;;;;33.47;20.35;;;8.40;99.90;;;;;;5043432;28;20502;-74
2022/03/29 01:54:45;;;;;;;34.63;20.70;;;8.40;99.90;;;;;;5027452;28;20033;-75
2022/03/29 01:57:12;;;;;;;34.42;20.52;;;8.40;99.90;;;;;;5043399;28;20025;-74
2022/03/29 02:02:22;;;;;;;30.20;19.00;;;8.40;99.90;;;;;;5029569;28;20096;-75
2022/03/29 02:04:48;;;;;;;31.25;19.38;;;8.20;99.90;;;;;;5039717;28;20103;-75
2022/03/29 02:07:15;;;;;;;35.28;20.70;;;8.10;99.90;;;;;;5040761;28;20041;-75
2022/03/29 02:09:41;;;;;;;36.00;20.45;;;8.00;99.90;;;;;;5044244;28;20092;-74
2022/03/29 02:12:07;;;;;;;34.75;20.70;;;8.00;99.90;;;;;;5039703;28;20029;-75
2022/03/29 02:14:34;;;;;;;32.10;20.50;;;7.90;99.90;;;;;;5044467;28;20035;-75
2022/03/29 02:17:00;;;;;;;33.10;19.77;;;7.70;99.90;;;;;;5040391;28;20021;-75
2022/03/29 02:19:26;;;;;;;32.78;20.42;;;7.60;99.90;;;;;;5045302;28;20115;-74
2022/03/29 02:21:52;;;;;;;31.90;20.33;;;7.50;99.90;;;;;;5036807;28;20111;-75
2022/03/29 02:24:17;;;;;;;34.08;20.80;;;7.50;99.90;;;;;;5039576;28;20025;-75
2022/03/29 02:26:43;;;;;;;34.20;20.85;;;7.40;99.90;;;;;;5048912;28;20021;-75
2022/03/29 02:29:09;;;;;;;30.50;19.30;;;7.30;99.90;;;;;;5028318;28;20025;-75
2022/03/29 02:31:35;;;;;;;32.30;19.45;;;7.30;99.90;;;;;;5041918;28;20497;-75
2022/03/29 02:34:02;;;;;;;32.28;19.98;;;7.20;99.90;;;;;;5037171;28;20040;-75
2022/03/29 02:36:28;;;;;;;33.72;20.38;;;7.20;99.90;;;;;;5025558;28;20026;-75
2022/03/29 02:38:54;;;;;;;32.80;20.00;;;7.20;99.90;;;;;;5032013;28;20031;-75
2022/03/29 02:41:19;;;;;;;37.47;20.48;;;7.20;99.90;;;;;;5035760;28;20547;-75
2022/03/29 02:43:45;;;;;;;33.55;19.90;;;7.20;99.90;;;;;;5022021;28;20119;-75
2022/03/29 02:46:10;;;;;;;33.55;20.60;;;7.20;99.90;;;;;;5034389;28;20493;-74
2022/03/29 02:48:36;;;;;;;34.03;20.05;;;7.20;99.90;;;;;;5039734;28;20127;-75
2022/03/29 02:51:02;;;;;;;34.65;21.75;;;7.20;99.90;;;;;;5040021;28;20021;-74
2022/03/29 02:53:27;;;;;;;35.47;21.17;;;7.20;99.90;;;;;;5040956;28;20524;-75
2022/03/29 02:55:53;;;;;;;34.47;21.35;;;7.20;99.90;;;;;;5034481;28;20119;-74
2022/03/29 02:58:19;;;;;;;35.83;21.33;;;7.30;99.90;;;;;;5028104;28;20104;-74
2022/03/29 03:00:45;;;;;;;37.20;22.40;;;7.30;99.90;;;;;;5037268;28;20029;-74
2022/03/29 03:03:10;;;;;;;40.20;23.95;;;7.30;99.90;;;;;;5038114;28;20091;-74
2022/03/29 03:05:36;;;;;;;38.22;22.95;;;7.30;99.90;;;;;;5041716;28;20108;-74
2022/03/29 03:08:02;;;;;;;40.88;24.13;;;7.40;99.90;;;;;;5038565;28;20032;-74
2022/03/29 03:10:28;;;;;;;41.55;24.67;;;7.50;99.90;;;;;;5040005;28;20146;-74
2022/03/29 03:12:53;;;;;;;43.30;24.60;;;7.60;99.90;;;;;;5032635;28;20086;-74
2022/03/29 03:15:23;;;;;;;38.95;24.35;;;7.70;99.90;;;;;;5035731;28;20024;-75
2022/03/29 03:17:54;;;;;;;35.63;22.67;;;7.70;99.90;;;;;;5043001;28;20025;-74
2022/03/29 03:20:21;;;;;;;43.55;24.55;;;7.60;99.90;;;;;;5039447;28;20472;-74
2022/03/29 03:22:47;;;;;;;40.20;24.50;;;7.60;99.90;;;;;;5032759;28;20082;-74
2022/03/29 03:25:13;;;;;;;45.88;25.55;;;7.60;99.90;;;;;;5036499;28;20032;-75
2022/03/29 03:27:40;;;;;;;45.38;25.77;;;7.60;99.90;;;;;;5038962;28;20018;-74
2022/03/29 03:30:08;;;;;;;43.47;24.65;;;7.70;99.90;;;;;;4985947;28;1084319;-75
2022/03/29 03:32:34;;;;;;;44.22;25.55;;;7.70;99.90;;;;;;5006306;28;20513;-74
2022/03/29 03:34:59;;;;;;;42.50;25.67;;;7.80;99.90;;;;;;5033456;28;20029;-75
2022/03/29 03:37:26;;;;;;;45.03;25.50;;;7.80;99.90;;;;;;5010429;28;20042;-75
2022/03/29 03:39:52;;;;;;;48.67;25.95;;;7.80;99.90;;;;;;5025526;28;20096;-74
2022/03/29 03:42:18;;;;;;;43.28;26.00;;;7.80;99.90;;;;;;5020325;28;20458;-74
2022/03/29 03:44:43;;;;;;;50.65;26.55;;;7.80;99.90;;;;;;5012372;28;20094;-75
2022/03/29 03:47:10;;;;;;;43.08;25.67;;;7.80;99.90;;;;;;5015794;28;20501;-74
2022/03/29 03:49:36;;;;;;;47.58;26.17;;;7.80;99.90;;;;;;5024293;28;20387;-75
2022/03/29 03:52:03;;;;;;;47.60;26.65;;;7.80;99.90;;;;;;5019271;28;20060;-75
2022/03/29 03:54:29;;;;;;;46.95;26.70;;;7.80;99.90;;;;;;5036789;28;20033;-74
2022/03/29 03:56:54;;;;;;;49.92;26.92;;;7.70;99.90;;;;;;5037367;28;20403;-74
2022/03/29 03:59:21;;;;;;;50.25;26.95;;;7.80;99.90;;;;;;5015475;28;20468;-74
2022/03/29 04:01:47;;;;;;;48.05;26.63;;;7.80;99.90;;;;;;5022452;28;20164;-74
2022/03/29 04:04:12;;;;;;;48.30;26.75;;;7.70;99.90;;;;;;5027861;28;20033;-74
2022/03/29 04:06:38;;;;;;;45.13;25.88;;;7.70;99.90;;;;;;5019304;28;20025;-74
2022/03/29 04:09:04;;;;;;;45.67;27.02;;;7.70;99.90;;;;;;5020131;28;20029;-74
2022/03/29 04:11:29;;;;;;;44.80;25.92;;;7.70;99.90;;;;;;5018540;28;21118;-74
2022/03/29 04:13:56;;;;;;;53.30;26.95;;;7.70;99.90;;;;;;5024637;28;20044;-74
2022/03/29 04:16:22;;;;;;;51.92;28.23;;;7.70;99.90;;;;;;5023917;28;20022;-74
2022/03/29 04:18:47;;;;;;;42.50;25.65;;;7.60;99.90;;;;;;5025767;28;20025;-74
2022/03/29 04:21:13;;;;;;;46.95;27.58;;;7.60;99.90;;;;;;5025689;28;20118;-74
2022/03/29 04:23:39;;;;;;;49.20;27.17;;;7.60;99.90;;;;;;5007646;28;20625;-74
2022/03/29 04:26:05;;;;;;;47.80;26.55;;;7.60;99.90;;;;;;5032022;28;20025;-74
2022/03/29 04:28:31;;;;;;;50.00;28.52;;;7.60;99.90;;;;;;5024241;28;20166;-75
2022/03/29 04:30:59;;;;;;;55.55;27.40;;;7.60;99.90;;;;;;5042636;28;20594;-75
2022/03/29 04:33:25;;;;;;;53.85;27.05;;;7.50;99.90;;;;;;5041092;28;20174;-74
2022/03/29 04:35:51;;;;;;;51.90;27.75;;;7.50;99.90;;;;;;5032300;28;20783;-74
2022/03/29 04:38:16;;;;;;;49.08;27.77;;;7.50;99.90;;;;;;5053270;28;20086;-74
2022/03/29 04:40:42;;;;;;;46.67;27.30;;;7.50;99.90;;;;;;5038998;28;20112;-74
2022/03/29 04:43:07;;;;;;;50.05;28.48;;;7.40;99.90;;;;;;5039204;28;20033;-74
2022/03/29 04:45:33;;;;;;;49.08;28.02;;;7.40;99.90;;;;;;5040011;28;20035;-74
2022/03/29 04:47:59;;;;;;;51.17;28.83;;;7.40;99.90;;;;;;5052731;28;20124;-75
2022/03/29 04:50:26;;;;;;;49.63;27.52;;;7.40;99.90;;;;;;5044975;28;20033;-75
2022/03/29 04:52:51;;;;;;;49.90;28.60;;;7.40;99.90;;;;;;5040746;28;20024;-75
2022/03/29 04:55:18;;;;;;;51.88;28.40;;;7.30;99.90;;;;;;5046815;28;20489;-75
2022/03/29 04:57:47;;;;;;;56.05;29.20;;;7.30;99.90;;;;;;5047140;28;20032;-75
2022/03/29 05:00:14;;;;;;;53.58;29.40;;;7.30;99.90;;;;;;5040183;28;20025;-75
2022/03/29 05:02:43;;;;;;;47.85;28.95;;;7.30;99.90;;;;;;5043156;28;20091;-74
2022/03/29 05:05:10;;;;;;;54.90;29.95;;;7.30;99.90;;;;;;5045237;28;20432;-74
2022/03/29 05:07:37;;;;;;;56.15;29.55;;;7.30;99.90;;;;;;5045218;28;20439;-74
2022/03/29 05:10:03;;;;;;;56.28;31.38;;;7.20;99.90;;;;;;5059487;28;20033;-74
2022/03/29 05:12:29;;;;;;;54.72;29.38;;;7.30;99.90;;;;;;5044083;28;20041;-74
2022/03/29 05:14:55;;;;;;;57.80;30.20;;;7.30;99.90;;;;;;5038251;28;20027;-74
2022/03/29 05:17:20;;;;;;;53.28;30.17;;;7.20;99.90;;;;;;5043401;28;20033;-74
2022/03/29 05:19:46;;;;;;;61.42;31.95;;;7.20;99.90;;;;;;5030709;28;20396;-74
2022/03/29 05:22:12;;;;;;;62.70;32.08;;;7.20;99.90;;;;;;5037602;28;20127;-74
2022/03/29 05:24:37;;;;;;;56.75;30.83;;;7.20;99.90;;;;;;4682925;28;10000122;-74
2022/03/29 05:27:03;;;;;;;60.13;32.53;;;7.20;99.90;;;;;;5040169;28;20051;-74
2022/03/29 05:29:30;;;;;;;63.83;31.95;;;7.20;99.90;;;;;;5053256;28;20027;-74
2022/03/29 05:31:57;;;;;;;57.95;32.72;;;7.20;99.90;;;;;;5039785;28;20048;-74
2022/03/29 05:34:23;;;;;;;62.83;33.78;;;7.10;99.90;;;;;;5043874;28;20526;-73
2022/03/29 05:36:49;;;;;;;63.22;34.15;;;7.10;99.90;;;;;;5044935;28;20025;-74
2022/03/29 05:39:16;;;;;;;68.57;35.97;;;7.10;99.90;;;;;;5036933;28;20037;-74
2022/03/29 05:41:42;;;;;;;67.72;37.33;;;7.10;99.90;;;;;;5021085;28;20048;-74
2022/03/29 05:44:08;;;;;;;76.78;38.13;;;7.10;99.90;;;;;;5033368;28;20037;-74
2022/03/29 05:49:20;;;;;;;70.03;38.72;;;7.10;99.90;;;;;;5036947;28;20060;-74
2022/03/29 05:51:46;;;;;;;66.82;37.85;;;7.10;99.90;;;;;;5037809;28;20029;-74
2022/03/29 05:54:12;;;;;;;72.60;37.90;;;7.10;99.90;;;;;;5041573;28;20535;-74
2022/03/29 05:56:37;;;;;;;68.40;38.35;;;7.20;99.90;;;;;;5046374;28;20163;-74
2022/03/29 05:59:03;;;;;;;76.82;39.85;;;7.20;99.90;;;;;;5041015;28;20039;-74
2022/03/29 06:01:29;;;;;;;77.72;40.90;;;7.20;99.90;;;;;;5044199;28;20380;-74
2022/03/29 06:03:55;;;;;;;71.18;39.95;;;7.20;99.90;;;;;;5041624;28;20287;-74
2022/03/29 06:06:20;;;;;;;75.53;41.30;;;7.20;99.90;;;;;;5035399;28;20024;-74
2022/03/29 06:08:46;;;;;;;71.13;40.50;;;7.20;99.90;;;;;;5044672;28;20035;-74
2022/03/29 06:11:13;;;;;;;77.95;40.58;;;7.30;99.90;;;;;;5039884;28;20063;-74
2022/03/29 06:13:38;;;;;;;77.35;41.45;;;7.30;99.90;;;;;;5034835;28;20040;-74
2022/03/29 06:16:04;;;;;;;76.90;40.88;;;7.30;99.90;;;;;;5037716;28;20032;-73
2022/03/29 06:18:30;;;;;;;78.50;43.05;;;7.40;99.90;;;;;;5040264;28;20025;-73
2022/03/29 06:20:56;;;;;;;79.25;42.50;;;7.40;99.90;;;;;;5040092;28;20370;-73
2022/03/29 06:23:22;;;;;;;80.78;43.67;;;7.50;99.90;;;;;;5041466;28;20071;-74
2022/03/29 06:25:50;;;;;;;81.22;43.20;;;7.50;99.90;;;;;;5040034;28;20039;-73
2022/03/29 06:28:18;;;;;;;79.65;44.60;;;7.50;99.90;;;;;;5043576;28;20051;-73
2022/03/29 06:30:44;;;;;;;78.40;42.50;;;7.50;99.90;;;;;;5040258;28;20037;-73
2022/03/29 06:33:11;;;;;;;75.70;41.83;;;7.60;99.90;;;;;;5034906;28;20374;-73
2022/03/29 06:35:38;;;;;;;78.07;41.47;;;7.60;99.90;;;;;;5033586;28;20025;-73
2022/03/29 06:38:05;;;;;;;77.32;41.60;;;7.60;99.90;;;;;;5045138;28;20067;-73
2022/03/29 06:40:31;;;;;;;79.68;41.60;;;7.70;99.90;;;;;;5042042;28;20527;-73
2022/03/29 06:43:00;;;;;;;77.40;40.75;;;7.70;99.90;;;;;;5029773;28;20492;-73
2022/03/29 06:45:27;;;;;;;75.05;42.15;;;7.70;99.90;;;;;;5042143;28;20472;-73
2022/03/29 06:47:53;;;;;;;77.25;43.47;;;7.70;99.90;;;;;;5043411;28;20032;-73
2022/03/29 06:50:20;;;;;;;84.70;45.33;;;7.80;99.90;;;;;;5037539;28;20029;-73
2022/03/29 06:52:47;;;;;;;82.35;43.97;;;7.80;99.90;;;;;;5040459;28;20024;-73
2022/03/29 06:55:15;;;;;;;85.03;45.17;;;7.80;99.90;;;;;;5033157;28;20280;-73
2022/03/29 06:57:41;;;;;;;82.05;43.70;;;7.80;99.90;;;;;;5035750;28;20585;-73
2022/03/29 07:00:09;;;;;;;78.90;43.45;;;7.80;99.90;;;;;;5040318;28;20045;-73
2022/03/29 07:02:35;;;;;;;85.95;44.85;;;7.80;99.90;;;;;;5034677;28;20017;-73
2022/03/29 07:05:02;;;;;;;81.70;43.28;;;7.80;99.90;;;;;;5038101;28;20109;-73
2022/03/29 07:07:27;;;;;;;82.97;45.35;;;7.80;99.90;;;;;;5037027;28;20039;-73
2022/03/29 07:12:55;;;;;;;73.18;40.95;;;7.80;99.90;;;;;;5038648;28;20110;-73
2022/03/29 07:15:21;;;;;;;73.45;40.25;;;7.80;99.90;;;;;;5038349;28;20496;-73
2022/03/29 07:17:47;;;;;;;75.25;41.85;;;7.90;99.90;;;;;;5036444;28;20678;-73
2022/03/29 07:20:15;;;;;;;72.97;41.40;;;7.90;99.90;;;;;;5044458;28;20029;-73
2022/03/29 07:22:42;;;;;;;73.90;41.47;;;8.00;99.90;;;;;;5040751;28;20042;-73
2022/03/29 07:25:09;;;;;;;75.65;41.53;;;8.00;99.90;;;;;;5033091;28;20033;-73
2022/03/29 07:27:35;;;;;;;69.57;39.70;;;8.00;99.90;;;;;;5038279;28;20108;-74
2022/03/29 07:30:03;;;;;;;72.57;40.85;;;8.10;99.90;;;;;;5031817;28;20103;-73
2022/03/29 07:32:28;;;;;;;69.80;39.83;;;8.20;99.90;;;;;;5038379;28;20553;-74
2022/03/29 07:34:55;;;;;;;73.95;38.38;;;8.30;99.90;;;;;;5037525;28;20060;-74
2022/03/29 07:37:21;;;;;;;71.18;39.78;;;8.30;99.90;;;;;;5044719;28;20040;-73
2022/03/29 07:39:48;;;;;;;66.78;38.78;;;8.40;99.90;;;;;;5038986;28;20102;-74
2022/03/29 07:42:14;;;;;;;67.78;38.35;;;8.40;99.90;;;;;;5027291;28;20041;-73
2022/03/29 07:44:39;;;;;;;62.58;37.65;;;8.40;99.90;;;;;;5039236;28;20229;-74
2022/03/29 07:47:05;;;;;;;68.28;38.65;;;8.50;99.90;;;;;;5039277;28;20870;-74
2022/03/29 07:49:31;;;;;;;69.32;39.85;;;8.50;99.90;;;;;;5034970;28;20047;-74
2022/03/29 07:51:57;;;;;;;67.72;38.33;;;8.60;99.90;;;;;;5039562;28;20155;-74
2022/03/29 07:54:22;;;;;;;63.65;37.17;;;8.60;99.90;;;;;;5037808;28;20057;-72
2022/03/29 07:56:48;;;;;;;61.75;36.85;;;8.60;99.90;;;;;;5036345;28;20480;-73
2022/03/29 07:59:14;;;;;;;60.90;36.72;;;8.60;99.90;;;;;;5037164;28;20484;-72
2022/03/29 08:01:39;;;;;;;63.15;37.13;;;8.70;99.90;;;;;;5039783;28;20029;-73
2022/03/29 08:04:05;;;;;;;62.92;36.20;;;8.70;99.90;;;;;;5040643;28;20092;-72
2022/03/29 08:06:31;;;;;;;66.65;38.05;;;8.80;99.90;;;;;;5047238;28;20025;-72
2022/03/29 08:08:57;;;;;;;69.22;39.95;;;8.80;99.90;;;;;;5041870;28;20029;-74
2022/03/29 08:11:23;;;;;;;62.88;37.60;;;8.80;99.90;;;;;;5035318;28;20096;-74
2022/03/29 08:13:49;;;;;;;67.50;38.25;;;8.90;99.90;;;;;;5035900;28;20022;-74
2022/03/29 08:16:15;;;;;;;58.70;36.03;;;9.00;99.90;;;;;;5034072;28;20044;-71
2022/03/29 08:18:41;;;;;;;63.60;37.05;;;9.10;99.90;;;;;;5037558;28;20261;-74
2022/03/29 08:21:48;;;;;;;65.15;38.00;;;9.20;99.90;;;;;;5036100;28;20072;-74
2022/03/29 08:23:53;;;;;;;61.85;36.90;;;9.20;99.90;;;;;;5035979;28;20029;-73
2022/03/29 08:26:19;;;;;;;63.88;36.70;;;9.20;99.90;;;;;;5038033;28;20358;-74
2022/03/29 08:28:45;;;;;;;61.47;36.90;;;9.30;99.90;;;;;;5034353;28;20477;-73
2022/03/29 08:31:12;;;;;;;62.08;35.92;;;9.40;99.90;;;;;;5040104;28;20278;-75
2022/03/29 08:33:37;;;;;;;59.70;35.70;;;9.40;99.90;;;;;;5034952;28;20033;-73
2022/03/29 08:36:03;;;;;;;62.03;35.88;;;9.50;99.90;;;;;;5036650;28;20141;-74
2022/03/29 08:38:29;;;;;;;55.90;35.13;;;9.50;99.90;;;;;;5039704;28;20025;-74
2022/03/29 08:40:57;;;;;;;58.42;36.13;;;9.60;99.90;;;;;;5031720;28;20026;-74
2022/03/29 08:43:27;;;;;;;60.22;36.13;;;9.60;99.90;;;;;;5041792;28;20051;-73
2022/03/29 08:45:53;;;;;;;58.78;35.97;;;9.70;99.90;;;;;;5038368;28;20041;-74
2022/03/29 08:48:23;;;;;;;56.70;34.10;;;9.70;99.90;;;;;;5039394;28;20418;-74
2022/03/29 08:50:51;;;;;;;60.75;34.53;;;9.80;99.90;;;;;;5057947;28;20046;-74
2022/03/29 08:53:19;;;;;;;57.03;34.83;;;9.80;99.90;;;;;;5051312;28;20074;-74
2022/03/29 08:55:46;;;;;;;57.05;35.45;;;9.90;99.90;;;;;;5038472;28;20116;-72
2022/03/29 08:58:12;;;;;;;56.95;34.92;;;9.90;99.90;;;;;;5041695;28;20029;-72
2022/03/29 09:00:37;;;;;;;57.05;34.75;;;9.80;99.90;;;;;;5043930;28;20030;-73
2022/03/29 09:03:03;;;;;;;62.25;35.42;;;9.70;99.90;;;;;;5045156;28;20538;-74
2022/03/29 09:05:31;;;;;;;62.33;36.22;;;9.70;99.90;;;;;;5040891;28;20063;-73
2022/03/29 09:08:03;;;;;;;58.78;35.13;;;9.70;99.90;;;;;;5041219;28;20029;-73
2022/03/29 09:10:49;;;;;;;62.58;34.22;;;9.80;99.90;;;;;;5044463;28;20045;-75
2022/03/29 09:13:28;;;;;;;58.80;34.25;;;9.80;99.90;;;;;;5031008;28;23194;-73
2022/03/29 09:16:01;;;;;;;55.85;33.67;;;9.90;99.90;;;;;;5036217;28;20030;-74
2022/03/29 09:18:27;;;;;;;;;;;10.00;99.90;;;;;;5038574;28;20029;-74
2022/03/29 09:21:14;;;;;;;57.33;33.30;;;10.10;99.90;;;;;;5041063;28;19909;-74
2022/03/29 09:23:41;;;;;;;56.42;33.33;;;10.20;99.90;;;;;;5044859;28;20029;-75
2022/03/29 09:26:07;;;;;;;53.97;34.13;;;10.30;99.90;;;;;;5038156;28;20044;-75
2022/03/29 09:28:37;;;;;;;55.15;33.78;;;10.30;99.90;;;;;;5036531;28;20029;-75
2022/03/29 09:31:24;;;;;;;56.70;33.50;;;10.20;99.90;;;;;;5041363;28;20044;-75
2022/03/29 09:33:51;;;;;;;57.53;33.80;;;10.20;99.90;;;;;;5043682;28;20036;-75
2022/03/29 09:36:20;;;;;;;57.50;34.65;;;10.20;99.90;;;;;;5039399;28;20029;-75
2022/03/29 09:38:48;;;;;;;52.67;32.70;;;10.10;99.90;;;;;;5043038;28;20032;-74
2022/03/29 09:41:32;;;;;;;56.83;34.08;;;10.10;99.90;;;;;;5042198;28;20064;-75
2022/03/29 09:44:06;;;;;;;56.95;34.58;;;10.10;99.90;;;;;;5032449;28;20029;-75
2022/03/29 09:46:56;;;;;;;57.42;34.55;;;10.20;99.90;;;;;;5041835;28;20428;-75
2022/03/29 09:49:22;;;;;;;51.35;32.92;;;10.20;99.90;;;;;;5023985;28;20033;-75
2022/03/29 09:52:11;;;;;;;52.83;32.40;;;10.20;99.90;;;;;;5045503;28;20086;-75
2022/03/29 09:54:38;;;;;;;52.47;32.40;;;10.30;99.90;;;;;;5035920;28;20032;-76
2022/03/29 09:57:04;;;;;;;54.80;33.53;;;10.40;99.90;;;;;;5043965;28;20554;-76
2022/03/29 09:59:32;;;;;;;54.75;32.72;;;10.50;99.90;;;;;;5034609;28;20029;-74
2022/03/29 10:01:58;;;;;;;56.42;33.13;;;10.50;99.90;;;;;;5044584;28;20083;-75
2022/03/29 10:04:26;;;;;;;53.95;33.05;;;10.50;99.90;;;;;;5037643;28;20039;-74
2022/03/29 10:06:54;;;;;;;50.00;32.63;;;10.70;99.90;;;;;;5045678;28;20111;-74
2022/03/29 10:09:37;;;;;;;52.97;33.38;;;10.70;99.90;;;;;;5045905;28;20035;-75
2022/03/29 10:12:07;;;;;;;51.13;32.13;;;10.80;99.90;;;;;;5033991;28;20033;-74
2022/03/29 10:14:39;;;;;;;55.03;32.95;;;10.90;99.90;;;;;;5033372;28;20184;-72
2022/03/29 10:17:07;;;;;;;54.87;34.10;;;11.00;99.90;;;;;;5034094;28;20033;-74
2022/03/29 10:19:34;;;;;;;51.95;31.50;;;11.10;99.90;;;;;;5038297;28;20021;-73
2022/03/29 10:22:01;;;;;;;48.55;31.95;;;11.20;99.90;;;;;;5042087;28;20032;-74
2022/03/29 10:24:28;;;;;;;50.78;32.08;;;11.30;99.90;;;;;;5037991;28;20036;-73
2022/03/29 10:26:56;;;;;;;48.15;32.50;;;11.40;99.90;;;;;;5039781;28;20170;-73
2022/03/29 10:29:22;;;;;;;50.95;31.40;;;11.50;99.90;;;;;;5039935;28;20046;-71
2022/03/29 10:31:56;;;;;;;48.67;31.20;;;11.80;99.90;;;;;;5040225;28;20108;-73
2022/03/29 10:34:39;;;;;;;48.45;32.13;;;11.80;99.90;;;;;;5032917;28;20033;-73
2022/03/29 10:37:17;;;;;;;52.17;32.30;;;12.00;99.90;;;;;;5037616;28;20037;-72
2022/03/29 10:40:02;;;;;;;50.78;32.28;;;12.00;99.90;;;;;;5031953;28;20033;-72
2022/03/29 10:42:33;;;;;;;53.10;32.65;;;12.20;99.90;;;;;;5039679;28;20445;-72
2022/03/29 10:45:23;;;;;;;50.67;32.90;;;12.20;99.90;;;;;;5043256;28;20025;-73
2022/03/29 10:47:58;;;;;;;48.28;31.63;;;12.20;99.90;;;;;;5035530;28;20028;-72
2022/03/29 10:50:47;;;;;;;47.15;31.48;;;12.30;99.90;;;;;;5039449;28;20455;-72
2022/03/29 10:53:32;;;;;;;47.42;31.65;;;12.30;99.90;;;;;;5030498;28;20052;-73
2022/03/29 10:56:15;;;;;;;51.42;33.42;;;12.30;99.90;;;;;;5031959;28;20623;-73
2022/03/29 10:59:02;;;;;;;45.80;31.85;;;12.30;99.90;;;;;;5029036;28;20037;-72
2022/03/29 11:01:29;;;;;;;48.10;31.08;;;12.40;99.90;;;;;;5044384;28;20021;-73
2022/03/29 11:04:20;;;;;;;49.38;32.22;;;12.40;99.90;;;;;;5030286;28;20017;-73
2022/03/29 11:07:04;;;;;;;48.10;31.25;;;12.50;99.90;;;;;;5023402;28;20033;-73
2022/03/29 11:09:30;;;;;;;53.22;32.10;;;12.60;99.90;;;;;;5046232;28;20033;-73
2022/03/29 11:11:56;;;;;;;52.20;32.35;;;12.70;99.90;;;;;;5037050;28;20400;-73
2022/03/29 11:14:27;;;;;;;47.40;32.30;;;12.70;99.90;;;;;;5025664;28;20144;-73
2022/03/29 11:17:11;;;;;;;53.40;31.92;;;12.80;99.90;;;;;;5038570;28;20401;-73
2022/03/29 11:19:59;;;;;;;44.03;29.58;;;13.00;99.90;;;;;;5041105;28;20041;-73
2022/03/29 11:22:41;;;;;;;42.90;29.23;;;13.20;99.90;;;;;;5033446;28;20036;-73
2022/03/29 11:25:09;;;;;;;44.97;30.25;;;13.40;99.90;;;;;;5032074;28;20025;-73
2022/03/29 11:27:36;;;;;;;45.85;30.65;;;13.40;99.90;;;;;;5034837;28;20090;-75
2022/03/29 11:30:11;;;;;;;43.60;30.55;;;13.50;99.90;;;;;;5027965;28;20164;-72
2022/03/29 11:32:45;;;;;;;46.60;30.60;;;13.60;99.90;;;;;;5034678;28;20103;-72
2022/03/29 11:35:12;;;;;;;43.63;29.02;;;13.70;99.90;;;;;;5034876;28;20056;-72
2022/03/29 11:37:43;;;;;;;45.30;30.05;;;13.80;99.90;;;;;;5050771;28;20364;-73
2022/03/29 11:40:16;;;;;;;52.85;31.15;;;13.90;99.90;;;;;;5047017;28;20047;-72
2022/03/29 11:42:59;;;;;;;44.25;30.30;;;14.10;99.90;;;;;;5031184;28;20053;-71
2022/03/29 11:45:27;;;;;;;44.90;30.13;;;14.30;99.90;;;;;;4684260;28;10000070;-71
2022/03/29 11:47:58;;;;;;;47.05;29.00;;;14.50;99.90;;;;;;5032308;28;20041;-71
2022/03/29 11:50:38;;;;;;;41.35;28.92;;;14.50;99.90;;;;;;5044656;28;20167;-71
2022/03/29 11:53:19;;;;;;;46.65;30.60;;;14.60;99.90;;;;;;5038348;28;20127;-70
2022/03/29 11:56:05;;;;;;;45.88;29.35;;;14.60;99.90;;;;;;5030576;28;20381;-71
2022/03/29 11:58:35;;;;;;;41.33;28.73;;;14.40;99.90;;;;;;5031539;28;20472;-71
2022/03/29 12:01:10;;;;;;;41.63;29.33;;;14.20;99.90;;;;;;5045064;28;20622;-71
2022/03/29 12:03:41;;;;;;;43.85;30.20;;;14.10;99.90;;;;;;5042204;28;20120;-71
2022/03/29 12:06:12;;;;;;;42.58;28.73;;;14.10;99.90;;;;;;5034795;28;20032;-73
2022/03/29 12:08:44;;;;;;;42.80;27.63;;;14.10;99.90;;;;;;5046371;28;20100;-74
2022/03/29 12:11:10;;;;;;;46.20;29.23;;;14.20;99.90;;;;;;5049271;28;20036;-72
2022/03/29 12:13:36;;;;;;;42.42;28.13;;;14.10;99.90;;;;;;5039021;28;20048;-71
2022/03/29 12:16:34;;;;;;;39.55;27.50;;;14.20;99.90;;;;;;5036770;28;20024;-72
2022/03/29 12:19:00;;;;;;;37.72;26.35;;;14.20;99.90;;;;;;4981146;28;20061;-72
2022/03/29 12:21:26;;;;;;;41.88;26.10;;;14.20;99.90;;;;;;5041037;28;20040;-71
2022/03/29 12:24:02;;;;;;;46.45;28.80;;;14.30;99.90;;;;;;5051518;28;20443;-72
2022/03/29 12:26:29;;;;;;;43.33;27.63;;;14.20;99.90;;;;;;5042327;28;20086;-72
2022/03/29 12:28:56;;;;;;;43.97;28.70;;;14.10;99.90;;;;;;5030563;28;20180;-72
2022/03/29 12:31:24;;;;;;;40.58;27.42;;;14.00;99.90;;;;;;5022247;28;20045;-71
2022/03/29 12:33:52;;;;;;;41.58;26.77;;;14.10;99.90;;;;;;5039964;28;20452;-72
2022/03/29 12:36:18;;;;;;;36.78;25.95;;;14.10;99.90;;;;;;5033378;28;20064;-72
2022/03/29 12:38:48;;;;;;;37.88;27.20;;;14.20;99.90;;;;;;5038988;28;20029;-71
2022/03/29 12:41:33;;;;;;;44.17;26.98;;;14.30;99.90;;;;;;5032908;28;20037;-71
2022/03/29 12:44:00;;;;;;;37.85;26.02;;;14.40;99.90;;;;;;5040448;28;20056;-72
2022/03/29 12:46:27;;;;;;;40.80;26.80;;;14.60;99.90;;;;;;5027886;28;20034;-71
2022/03/29 12:48:55;;;;;;;39.97;27.20;;;14.80;99.90;;;;;;5036305;28;20029;-71